createdAt,value
2018-02-13T05:35:12.947Z,4.50
2018-02-13T05:37:41.970Z,4.55
2018-02-13T05:40:11.192Z,4.51
2018-02-13T05:42:41.510Z,4.58
2018-02-13T05:45:10.587Z,4.57
2018-02-13T05:47:39.681Z,4.62
2018-02-13T05:50:11.332Z,4.66
2018-02-13T05:52:40.677Z,4.63
2018-02-13T05:55:10.960Z,4.69
2018-02-13T05:57:41.560Z,4.67
2018-02-13T06:00:11.407Z,4.69
2018-02-13T06:02:40.607Z,4.65
2018-02-13T06:05:10.571Z,4.57
2018-02-13T06:07:40.032Z,4.61
2018-02-13T06:10:09.007Z,4.63
2018-02-13T06:12:38.222Z,4.76
2018-02-13T06:15:08.244Z,4.76
2018-02-13T06:17:37.373Z,4.90
2018-02-13T06:20:07.443Z,4.89
2018-02-13T06:22:36.661Z,4.85
2018-02-13T06:25:06.660Z,4.89
2018-02-13T06:27:35.793Z,4.98
2018-02-13T06:30:04.754Z,5.11
2018-02-13T06:32:33.871Z,5.18
2018-02-13T06:35:05.656Z,5.22
2018-02-13T06:37:36.113Z,5.34
2018-02-13T06:40:07.806Z,5.32
2018-02-13T06:42:36.893Z,5.41
2018-02-13T06:45:06.745Z,5.35
2018-02-13T06:47:36.682Z,5.30
2018-02-13T06:50:05.733Z,5.48
2018-02-13T06:52:34.793Z,5.57
2018-02-13T06:55:06.266Z,5.65
2018-02-13T06:57:35.466Z,5.46
2018-02-13T07:00:04.702Z,5.53
2018-02-13T07:02:35.316Z,5.52
2018-02-13T07:05:04.391Z,5.51
2018-02-13T07:07:33.391Z,5.77
2018-02-13T07:10:04.432Z,5.64
2018-02-13T07:12:34.386Z,5.84
2018-02-13T07:15:03.711Z,5.79
2018-02-13T07:17:35.203Z,5.75
2018-02-13T07:20:04.403Z,5.82
2018-02-13T07:22:33.491Z,5.85
2018-02-13T07:25:03.478Z,5.92
2018-02-13T07:27:33.222Z,5.97
2018-02-13T07:30:02.315Z,5.85
2018-02-13T07:32:33.835Z,5.85
2018-02-13T07:35:02.892Z,5.88
2018-02-13T07:37:32.090Z,6.01
2018-02-13T07:40:01.376Z,6.14
2018-02-13T07:42:30.456Z,6.26
2018-02-13T07:45:00.786Z,6.39
2018-02-13T07:47:31.936Z,6.27
2018-02-13T07:50:02.621Z,6.57
2018-02-13T07:52:31.656Z,6.75
2018-02-13T07:55:01.311Z,6.90
2018-02-13T07:57:30.367Z,7.07
2018-02-13T07:59:59.362Z,6.96
2018-02-13T08:02:28.651Z,6.79
2018-02-13T08:04:57.651Z,6.56
2018-02-13T08:07:26.645Z,6.77
2018-02-13T08:09:55.907Z,6.98
2018-02-13T08:12:24.934Z,6.80
2018-02-13T08:14:53.934Z,7.10
2018-02-13T08:17:24.563Z,6.91
2018-02-13T08:19:53.665Z,7.00
2018-02-13T08:22:22.655Z,6.96
2018-02-13T08:24:54.248Z,6.50
2018-02-13T08:27:24.058Z,6.76
2018-02-13T08:29:53.126Z,6.53
2018-02-13T08:32:23.448Z,6.67
2018-02-13T08:34:53.490Z,6.76
2018-02-13T08:37:22.516Z,6.81
2018-02-13T08:40:06.482Z,7.00
2018-02-13T08:42:35.587Z,7.03
2018-02-13T08:45:04.546Z,7.01
2018-02-13T08:47:34.372Z,6.85
2018-02-13T08:50:03.481Z,6.89
2018-02-13T08:52:32.512Z,6.85
2018-02-13T08:55:02.477Z,6.93
2018-02-13T08:57:31.487Z,6.74
2018-02-13T09:00:01.297Z,6.64
2018-02-13T09:02:30.421Z,6.63
2018-02-13T09:04:59.427Z,6.70
2018-02-13T09:07:28.571Z,7.09
2018-02-13T09:10:01.112Z,7.12
2018-02-13T09:12:30.061Z,7.20
2018-02-13T09:14:59.635Z,7.10
2018-02-13T09:17:28.761Z,6.90
2018-02-13T09:19:57.847Z,7.12
2018-02-13T09:22:26.853Z,7.19
2018-02-13T09:24:56.833Z,7.55
2018-02-13T09:27:25.832Z,7.34
2018-02-13T09:29:54.958Z,7.08
2018-02-13T09:32:24.192Z,7.16
2018-02-13T09:34:53.356Z,7.20
2018-02-13T09:37:22.556Z,6.99
2018-02-13T09:39:51.547Z,6.98
2018-02-13T09:42:20.545Z,7.10
2018-02-13T09:44:49.640Z,6.91
2018-02-13T09:47:18.674Z,6.64
2018-02-13T09:49:47.625Z,6.96
2018-02-13T09:52:17.036Z,6.99
2018-02-13T09:54:46.172Z,6.49
2018-02-13T09:57:15.148Z,6.53
2018-02-13T09:59:44.860Z,6.49
2018-02-13T10:02:15.065Z,6.57
2018-02-13T10:04:44.088Z,6.43
2018-02-13T10:07:13.176Z,6.45
2018-02-13T10:09:42.935Z,6.26
2018-02-13T10:12:12.972Z,6.42
2018-02-13T10:14:42.586Z,6.60
2018-02-13T10:17:11.712Z,6.67
2018-02-13T10:19:41.014Z,6.89
2018-02-13T10:22:10.908Z,6.99
2018-02-13T10:24:40.870Z,7.15
2018-02-13T10:27:10.151Z,7.17
2018-02-13T10:29:39.412Z,7.36
2018-02-13T10:32:08.508Z,7.45
2018-02-13T10:34:37.808Z,7.83
2018-02-13T10:37:06.992Z,8.15
2018-02-13T10:39:39.691Z,8.36
2018-02-13T10:42:08.852Z,8.30
2018-02-13T10:44:37.982Z,8.29
2018-02-13T10:47:06.978Z,8.13
2018-02-13T10:49:35.953Z,8.42
2018-02-13T10:52:04.971Z,8.52
2018-02-13T10:54:33.942Z,8.50
2018-02-13T10:57:02.931Z,8.56
2018-02-13T10:59:32.095Z,8.56
2018-02-13T11:02:09.252Z,8.51
2018-02-13T11:04:39.264Z,8.31
2018-02-13T11:07:08.351Z,8.41
2018-02-13T11:09:37.445Z,8.69
2018-02-13T11:12:06.507Z,8.59
2018-02-13T11:14:35.632Z,8.67
2018-02-13T11:17:07.293Z,8.48
2018-02-13T11:19:37.213Z,8.52
2018-02-13T11:22:06.207Z,8.42
2018-02-13T11:24:37.091Z,8.42
2018-02-13T11:27:06.016Z,8.25
2018-02-13T11:29:35.128Z,8.17
2018-02-13T11:32:05.591Z,8.05
2018-02-13T11:34:34.492Z,8.02
2018-02-13T11:37:04.771Z,7.90
2018-02-13T11:39:34.212Z,7.75
2018-02-13T11:42:03.273Z,8.04
2018-02-13T11:44:32.266Z,8.09
2018-02-13T11:47:02.695Z,8.05
2018-02-13T11:49:31.998Z,8.18
2018-02-13T11:52:00.986Z,8.12
2018-02-13T11:54:30.001Z,8.06
2018-02-13T11:56:59.016Z,8.04
2018-02-13T11:59:28.088Z,7.87
2018-02-13T12:01:57.173Z,7.55
2018-02-13T12:04:27.171Z,7.40
2018-02-13T12:06:59.109Z,7.72
2018-02-13T12:09:29.601Z,7.96
2018-02-13T12:11:58.636Z,8.08
2018-02-13T12:14:31.168Z,7.89
2018-02-13T12:17:01.020Z,7.93
2018-02-13T12:19:30.712Z,7.75
2018-02-13T12:21:59.692Z,7.60
2018-02-13T12:24:32.378Z,7.69
2018-02-13T12:27:02.286Z,7.81
2018-02-13T12:29:31.279Z,7.98
2018-02-13T12:32:00.250Z,8.12
2018-02-13T12:34:30.378Z,8.22
2018-02-13T12:36:59.285Z,8.00
2018-02-13T12:39:28.419Z,7.31
2018-02-13T12:42:01.158Z,7.57
2018-02-13T12:44:30.168Z,7.38
2018-02-13T12:46:59.693Z,7.43
2018-02-13T12:49:29.829Z,7.86
2018-02-13T12:51:59.716Z,8.14
2018-02-13T12:54:29.108Z,8.49
2018-02-13T12:56:59.434Z,8.72
2018-02-13T12:59:28.522Z,8.76
2018-02-13T13:01:57.833Z,8.82
2018-02-13T13:04:30.307Z,8.82
2018-02-13T13:06:59.400Z,8.27
2018-02-13T13:09:28.372Z,8.46
2018-02-13T13:11:58.917Z,8.54
2018-02-13T13:14:27.927Z,8.49
2018-02-13T13:16:56.911Z,8.50
2018-02-13T13:19:27.667Z,8.62
2018-02-13T13:21:56.747Z,8.38
2018-02-13T13:24:26.531Z,8.14
2018-02-13T13:26:57.631Z,8.23
2018-02-13T13:29:27.458Z,8.01
2018-02-13T13:31:56.714Z,7.72
2018-02-13T13:34:27.034Z,7.62
2018-02-13T13:36:56.133Z,7.60
2018-02-13T13:39:25.238Z,7.34
2018-02-13T13:41:56.179Z,7.42
2018-02-13T13:44:25.381Z,7.46
2018-02-13T13:46:54.363Z,7.39
2018-02-13T13:49:25.033Z,7.56
2018-02-13T13:51:54.895Z,7.55
2018-02-13T13:54:24.148Z,7.55
2018-02-13T13:56:54.191Z,7.62
2018-02-13T13:59:23.435Z,7.63
2018-02-13T14:01:53.592Z,7.49
2018-02-13T14:04:22.788Z,7.51
2018-02-13T14:06:51.849Z,7.46
2018-02-13T14:09:22.417Z,7.46
2018-02-13T14:11:52.705Z,7.18
2018-02-13T14:14:21.897Z,7.13
2018-02-13T14:16:52.730Z,7.34
2018-02-13T14:19:21.774Z,7.41
2018-02-13T14:21:51.366Z,7.25
2018-02-13T14:24:20.568Z,7.34
2018-02-13T14:26:54.558Z,7.28
2018-02-13T14:29:24.835Z,7.26
2018-02-13T14:31:54.787Z,7.19
2018-02-13T14:34:24.707Z,7.05
2018-02-13T14:36:53.838Z,7.09
2018-02-13T14:39:23.837Z,6.99
2018-02-13T14:41:52.928Z,7.02
2018-02-13T14:44:21.863Z,7.06
2018-02-13T14:46:52.642Z,7.11
2018-02-13T14:49:22.558Z,7.08
2018-02-13T14:51:53.085Z,7.02
2018-02-13T14:54:22.285Z,7.05
2018-02-13T14:56:53.017Z,6.84
2018-02-13T14:59:23.803Z,6.84
2018-02-13T15:01:52.852Z,6.72
2018-02-13T15:04:23.075Z,6.81
2018-02-13T15:06:55.185Z,6.78
2018-02-13T15:09:28.742Z,6.77
2018-02-13T15:11:57.816Z,6.67
2018-02-13T15:14:28.112Z,6.69
2018-02-13T15:17:01.839Z,6.55
2018-02-13T15:19:31.386Z,6.44
2018-02-13T15:22:02.161Z,6.52
2018-02-13T15:24:32.123Z,6.58
2018-02-13T15:27:14.016Z,6.47
2018-02-13T15:29:43.874Z,6.49
2018-02-13T15:32:13.253Z,6.43
2018-02-13T15:34:42.346Z,6.35
2018-02-13T15:37:24.532Z,6.35
2018-02-13T15:39:53.623Z,6.23
2018-02-13T15:42:22.813Z,6.20
2018-02-13T15:44:53.205Z,6.19
2018-02-13T15:47:26.900Z,6.19
2018-02-13T15:49:57.355Z,6.22
2018-02-13T15:52:27.198Z,6.26
2018-02-13T15:54:57.416Z,6.23
2018-02-13T15:57:27.176Z,6.29
2018-02-13T15:59:59.044Z,6.28
2018-02-13T16:02:30.591Z,6.30
2018-02-13T16:05:00.393Z,6.32
2018-02-13T16:07:29.490Z,6.29
2018-02-13T16:10:00.992Z,6.32
2018-02-13T16:12:30.002Z,6.30
2018-02-13T16:14:58.993Z,6.36
2018-02-13T16:17:29.658Z,6.37
2018-02-13T16:19:58.548Z,6.38
2018-02-13T16:22:27.512Z,6.40
2018-02-13T16:24:58.259Z,6.41
2018-02-13T16:27:27.340Z,6.44
2018-02-13T16:29:56.542Z,6.49
2018-02-13T16:32:26.531Z,6.40
2018-02-13T16:34:55.857Z,6.36
2018-02-13T16:37:25.862Z,6.34
2018-02-13T16:39:55.078Z,6.35
2018-02-13T16:42:24.285Z,6.39
2018-02-13T16:44:54.089Z,6.36
2018-02-13T16:47:23.861Z,6.32
2018-02-13T16:49:53.713Z,6.29
2018-02-13T16:52:22.817Z,6.36
2018-02-13T16:54:53.034Z,6.39
2018-02-13T16:57:22.641Z,6.34
2018-02-13T16:59:51.632Z,6.35
2018-02-13T17:02:21.431Z,6.29
2018-02-13T17:04:51.466Z,6.27
2018-02-13T17:07:20.493Z,6.26
2018-02-13T17:09:50.498Z,6.19
2018-02-13T17:12:21.214Z,6.20
2018-02-13T17:14:50.423Z,6.24
2018-02-13T17:17:19.715Z,6.26
2018-02-13T17:19:48.917Z,6.32
2018-02-13T17:22:17.972Z,6.36
2018-02-13T17:24:47.545Z,6.40
2018-02-13T17:27:16.521Z,6.39
2018-02-13T17:29:46.592Z,6.38
2018-02-13T17:32:18.861Z,6.42
2018-02-13T17:34:48.131Z,6.46
2018-02-13T17:37:19.311Z,6.48
2018-02-13T17:39:48.804Z,6.47
2018-02-13T17:42:17.822Z,6.51
2018-02-13T17:44:48.890Z,6.58
2018-02-13T17:47:17.977Z,6.51
2018-02-13T17:49:47.017Z,6.56
2018-02-13T17:52:17.051Z,6.57
2018-02-13T17:54:46.840Z,6.56
2018-02-13T17:57:15.845Z,6.58
2018-02-13T17:59:45.031Z,6.53
2018-02-13T18:02:15.532Z,6.51
2018-02-13T18:04:44.732Z,6.54
2018-02-13T18:07:15.462Z,6.55
2018-02-13T18:09:44.467Z,6.55
2018-02-13T18:12:13.962Z,6.60
2018-02-13T18:14:43.310Z,6.54
2018-02-13T18:17:13.292Z,6.57
2018-02-13T18:19:43.470Z,6.58
2018-02-13T18:22:12.645Z,6.66
2018-02-13T18:24:42.536Z,6.55
2018-02-13T18:27:12.667Z,6.53
2018-02-13T18:29:42.584Z,6.53
2018-02-13T18:32:11.960Z,6.59
2018-02-13T18:34:42.459Z,6.55
2018-02-13T18:37:13.500Z,6.58
2018-02-13T18:39:42.628Z,6.47
2018-02-13T18:42:12.597Z,6.43
2018-02-13T18:44:43.875Z,6.36
2018-02-13T18:47:13.189Z,6.29
2018-02-13T18:49:43.546Z,6.30
2018-02-13T18:54:44.468Z,6.33
2018-02-13T18:57:15.219Z,6.41
2018-02-13T18:59:44.328Z,6.41
2018-02-13T19:02:13.340Z,6.46
2018-02-13T19:04:44.158Z,6.38
2018-02-13T19:07:13.366Z,6.40
2018-02-13T19:09:43.437Z,6.41
2018-02-13T19:12:13.840Z,6.41
2018-02-13T19:14:42.846Z,6.36
2018-02-13T19:19:42.962Z,6.57
2018-02-13T19:22:11.880Z,6.57
2018-02-13T19:24:41.017Z,6.62
2018-02-13T19:27:12.019Z,6.58
2018-02-13T19:29:41.152Z,6.56
2018-02-13T19:32:10.415Z,6.51
2018-02-13T19:34:39.782Z,6.47
2018-02-13T19:37:08.855Z,6.39
2018-02-13T19:39:37.901Z,6.40
2018-02-13T19:42:07.934Z,6.42
2018-02-13T19:44:37.035Z,6.50
2018-02-13T19:47:07.263Z,6.53
2018-02-13T19:49:37.380Z,6.57
2018-02-13T19:52:06.685Z,6.65
2018-02-13T19:54:36.011Z,6.65
2018-02-13T19:57:06.258Z,6.67
2018-02-13T19:59:35.501Z,6.66
2018-02-13T20:02:05.138Z,6.66
2018-02-13T20:04:34.441Z,6.68
2018-02-13T20:07:03.654Z,6.68
2018-02-13T20:09:32.969Z,6.61
2018-02-13T20:12:02.141Z,6.58
2018-02-13T20:14:31.222Z,6.57
2018-02-13T20:17:01.646Z,6.62
2018-02-13T20:19:30.728Z,6.61
2018-02-13T20:21:59.813Z,6.45
2018-02-13T20:24:29.943Z,6.45
2018-02-13T20:26:59.167Z,6.43
2018-02-13T20:29:29.085Z,6.43
2018-02-13T20:31:58.256Z,6.45
2018-02-13T20:34:28.325Z,6.45
2018-02-13T20:36:57.366Z,6.41
2018-02-13T20:39:27.263Z,6.43
2018-02-13T20:41:58.225Z,6.52
2018-02-13T20:44:27.563Z,6.51
2018-02-13T20:46:57.167Z,6.59
2018-02-13T20:49:26.236Z,6.58
2018-02-13T20:51:55.466Z,6.61
2018-02-13T20:54:25.498Z,6.70
2018-02-13T20:56:56.184Z,6.71
2018-02-13T20:59:25.380Z,6.72
2018-02-13T21:01:54.927Z,6.62
2018-02-13T21:04:24.971Z,6.64
2018-02-13T21:06:54.800Z,6.67
2018-02-13T21:09:24.018Z,6.64
2018-02-13T21:11:59.181Z,6.67
2018-02-13T21:14:30.140Z,6.60
2018-02-13T21:17:01.919Z,6.67
2018-02-13T21:19:31.255Z,6.65
2018-02-13T21:22:00.356Z,6.73
2018-02-13T21:24:29.436Z,6.85
2018-02-13T21:26:58.980Z,6.85
2018-02-13T21:29:28.177Z,6.81
2018-02-13T21:31:57.454Z,6.74
2018-02-13T21:34:26.750Z,6.75
2018-02-13T21:36:56.001Z,6.82
2018-02-13T21:39:25.259Z,6.83
2018-02-13T21:41:54.195Z,6.92
2018-02-13T21:44:23.183Z,6.98
2018-02-13T21:46:52.382Z,6.83
2018-02-13T21:49:21.494Z,6.77
2018-02-13T21:51:51.456Z,6.63
2018-02-13T21:54:21.042Z,6.64
2018-02-13T21:56:51.131Z,6.65
2018-02-13T21:59:20.184Z,6.69
2018-02-13T22:01:52.791Z,6.70
2018-02-13T22:04:21.853Z,6.75
2018-02-13T22:06:51.907Z,6.77
2018-02-13T22:09:21.890Z,6.83
2018-02-13T22:11:53.674Z,6.81
2018-02-13T22:14:24.173Z,6.66
2018-02-13T22:16:54.397Z,6.65
2018-02-13T22:19:23.528Z,6.75
2018-02-13T22:21:54.472Z,6.78
2018-02-13T22:24:23.532Z,6.73
2018-02-13T22:26:52.522Z,6.62
2018-02-13T22:29:21.618Z,6.80
2018-02-13T22:31:50.820Z,6.78
2018-02-13T22:34:20.110Z,6.79
2018-02-13T22:36:49.322Z,6.74
2018-02-13T22:39:18.362Z,6.67
2018-02-13T22:44:45.057Z,6.70
2018-02-13T22:47:16.861Z,6.63
2018-02-13T22:49:46.138Z,6.51
2018-02-13T22:52:16.029Z,6.53
2018-02-13T22:54:47.521Z,6.49
2018-02-13T22:57:16.809Z,6.55
2018-02-13T22:59:46.146Z,6.55
2018-02-13T23:02:15.305Z,6.63
2018-02-13T23:04:45.831Z,6.69
2018-02-13T23:07:14.757Z,6.74
2018-02-13T23:09:46.100Z,6.75
2018-02-13T23:12:15.277Z,6.73
2018-02-13T23:14:44.371Z,6.76
2018-02-13T23:17:13.567Z,6.73
2018-02-13T23:19:42.875Z,6.67
2018-02-13T23:22:12.071Z,6.63
2018-02-13T23:24:41.915Z,6.71
2018-02-13T23:27:10.877Z,6.74
2018-02-13T23:29:41.687Z,6.69
2018-02-13T23:32:10.806Z,6.69
2018-02-13T23:34:40.826Z,6.68
2018-02-13T23:37:09.925Z,6.64
2018-02-13T23:39:39.423Z,6.62
2018-02-13T23:42:08.527Z,6.70
2018-02-13T23:44:37.707Z,6.67
2018-02-13T23:47:06.773Z,6.78
2018-02-13T23:49:35.917Z,6.79
2018-02-13T23:52:05.829Z,6.71
2018-02-13T23:54:35.653Z,6.58
2018-02-13T23:57:05.066Z,6.70
2018-02-13T23:59:34.419Z,6.60
